»·PEaware :: SWA460 KCOS-KDAL

SWA460 :: KCOS-KDAL

FLIGHT INFORMATION

Flight Status: Arrived
Operator:
Southwest Airlines
More flights by this operator :: More flights under this callsign
Pilot: Tristan Z. (4790)
Aircraft: BOEING 737-700
(B737)
More flights by this aircraft type
Origin: KCOS City Of Colorado Springs Mun
United States
Destination: KDAL Dallas Love
United States
More flights between these airports :: More routes between these airports
Route: +COS6 BRK V83 PUB ZIGEE IPIME HEATR UKW GREGS9
File this flight plan on PilotEdge
Remarks:
Altitude:
(Current/Filed)
37,000ft
Speed:
(Current/Filed)
450kts
Departed: 01-Nov-20 01:28 PM
Arrived: 01-Nov-20 02:52 PM
Distance/Time
Traveled:
523nm/1:24
Distance/Time
To Go:
Arrived

Flight Plot

Page will automatically refresh every two minutes.

Flight plan parsing failed; only flown route is shown


Map Options




Map Legend


Flown Route
Filed Route
Departure Airport
Arrival Airport
Navaid (VOR, NDB)
Fix

Horizontal Profiles

Position Reports

Time Latitude Longitude Heading Altitude Ground
Speed
01-Nov-20 12:52 38.797974 -104.701550 101 6195ft 0kts
01-Nov-20 12:53 38.797974 -104.701550 101 6195ft 0kts
01-Nov-20 12:54 38.797974 -104.701550 101 6195ft 0kts
01-Nov-20 12:55 38.797974 -104.701550 101 6195ft 0kts
01-Nov-20 12:56 38.797974 -104.701550 101 6195ft 0kts
01-Nov-20 12:57 38.797974 -104.701550 101 6195ft 0kts
01-Nov-20 12:58 38.797974 -104.701550 101 6195ft 0kts
01-Nov-20 12:59 38.797974 -104.701550 101 6195ft 0kts
01-Nov-20 13:00 38.797974 -104.701550 101 6195ft 0kts
01-Nov-20 13:01 38.797974 -104.701550 101 6195ft 0kts
01-Nov-20 13:02 38.797974 -104.701550 101 6195ft 0kts
01-Nov-20 13:03 38.797974 -104.701550 101 6195ft 0kts
01-Nov-20 13:04 38.797974 -104.701550 101 6195ft 0kts
01-Nov-20 13:05 38.797974 -104.701550 101 6195ft 0kts
01-Nov-20 13:06 38.797974 -104.701550 101 6195ft 0kts
01-Nov-20 13:07 38.797974 -104.701550 101 6195ft 0kts
01-Nov-20 13:08 38.797974 -104.701550 101 6195ft 0kts
01-Nov-20 13:09 38.797974 -104.701550 101 6195ft 0kts
01-Nov-20 13:10 38.797974 -104.701550 101 6195ft 0kts
01-Nov-20 13:11 38.797974 -104.701550 101 6195ft 0kts
01-Nov-20 13:12 38.797974 -104.701550 101 6195ft 0kts
01-Nov-20 13:13 38.797974 -104.701550 101 6195ft 0kts
01-Nov-20 13:14 38.797974 -104.701550 101 6195ft 0kts
01-Nov-20 13:15 38.798021 -104.701834 101 6195ft 2kts
01-Nov-20 13:16 38.798131 -104.702500 102 6195ft 1kts
01-Nov-20 13:17 38.798140 -104.702596 88 6195ft 0kts
01-Nov-20 13:18 38.798816 -104.702513 358 6195ft 10kts
01-Nov-20 13:19 38.800989 -104.704276 322 6195ft 9kts
01-Nov-20 13:20 38.803594 -104.705304 268 6195ft 12kts
01-Nov-20 13:21 38.803627 -104.710783 269 6195ft 23kts
01-Nov-20 13:22 38.806442 -104.713448 0 6195ft 13kts
01-Nov-20 13:23 38.811229 -104.713464 359 6195ft 25kts
01-Nov-20 13:24 38.818029 -104.713452 359 6195ft 23kts
01-Nov-20 13:25 38.823846 -104.714001 285 6195ft 19kts
01-Nov-20 13:26 38.823015 -104.715895 179 6195ft 2kts
01-Nov-20 13:27 38.792209 -104.715873 178 7201ft 169kts
01-Nov-20 13:28 38.734134 -104.714086 179 9371ft 237kts
01-Nov-20 13:29 38.658132 -104.693483 151 10895ft 333kts
01-Nov-20 13:30 38.574032 -104.632421 150 13832ft 363kts
01-Nov-20 13:31 38.485792 -104.568250 150 15730ft 372kts
01-Nov-20 13:32 38.395254 -104.502585 150 17288ft 378kts
01-Nov-20 13:33 38.301848 -104.434978 151 20302ft 397kts
01-Nov-20 13:34 38.238354 -104.321402 114 22958ft 417kts
01-Nov-20 13:35 38.183538 -104.188384 120 25376ft 434kts
01-Nov-20 13:36 38.121306 -104.053561 120 27591ft 450kts
01-Nov-20 13:37 38.056925 -103.914717 120 29608ft 465kts
01-Nov-20 13:38 37.990559 -103.772225 121 31639ft 474kts
01-Nov-20 13:39 37.923555 -103.628994 121 33905ft 471kts
01-Nov-20 13:40 37.857040 -103.487430 121 36012ft 466kts
01-Nov-20 13:41 37.790725 -103.346915 121 37414ft 472kts
01-Nov-20 13:42 37.722454 -103.202781 121 37426ft 475kts
01-Nov-20 13:44 37.654228 -103.059486 122 37430ft 482kts
01-Nov-20 13:45 37.584644 -102.913951 122 37523ft 490kts
01-Nov-20 13:46 37.506569 -102.774802 136 39039ft 485kts
01-Nov-20 13:47 37.404353 -102.665637 145 39439ft 480kts
01-Nov-20 13:48 37.300127 -102.562813 144 39444ft 479kts
01-Nov-20 13:49 37.195272 -102.459485 144 39444ft 479kts
01-Nov-20 13:50 37.090414 -102.356556 144 39446ft 480kts
01-Nov-20 13:51 36.985614 -102.253980 145 39437ft 477kts
01-Nov-20 13:52 36.881474 -102.152488 145 39437ft 477kts
01-Nov-20 13:53 36.776608 -102.050640 145 39437ft 477kts
01-Nov-20 13:54 36.672173 -101.949577 145 39442ft 477kts
01-Nov-20 13:55 36.567549 -101.848680 145 39456ft 477kts
01-Nov-20 13:56 36.462545 -101.747779 145 39467ft 477kts
01-Nov-20 13:57 36.357742 -101.647420 145 39469ft 477kts
01-Nov-20 13:58 36.252838 -101.547317 145 39486ft 477kts
01-Nov-20 13:59 36.147877 -101.447503 145 39516ft 477kts
01-Nov-20 14:00 36.042837 -101.347966 146 39519ft 477kts
01-Nov-20 14:01 35.937811 -101.248731 146 39512ft 477kts
01-Nov-20 14:02 35.839057 -101.139668 136 39515ft 481kts
01-Nov-20 14:03 35.746807 -101.019887 136 39519ft 481kts
01-Nov-20 14:03 35.669869 -100.920573 136 39522ft 487kts
01-Nov-20 14:04 35.575526 -100.799159 137 39523ft 494kts
01-Nov-20 14:05 35.480513 -100.677324 137 39518ft 494kts
01-Nov-20 14:06 35.385839 -100.556380 137 39522ft 494kts
01-Nov-20 14:07 35.290780 -100.435383 137 39520ft 494kts
01-Nov-20 14:08 35.195402 -100.314381 137 39502ft 494kts
01-Nov-20 14:09 35.100080 -100.193874 137 39527ft 493kts
01-Nov-20 14:10 35.004866 -100.073979 138 39540ft 494kts
01-Nov-20 14:11 34.909055 -99.953762 139 39542ft 495kts
01-Nov-20 14:12 34.814542 -99.832340 133 39553ft 498kts
01-Nov-20 14:13 34.730993 -99.697876 131 39552ft 500kts
01-Nov-20 14:14 34.647260 -99.563040 131 39554ft 499kts
01-Nov-20 14:15 34.563471 -99.428623 131 39547ft 500kts
01-Nov-20 14:16 34.479545 -99.294429 132 39526ft 498kts
01-Nov-20 14:17 34.395739 -99.160966 132 39528ft 500kts
01-Nov-20 14:18 34.311342 -99.027094 132 39528ft 501kts
01-Nov-20 14:19 34.226147 -98.892475 132 39509ft 509kts
01-Nov-20 14:20 34.139228 -98.755662 131 39512ft 523kts
01-Nov-20 14:21 34.049896 -98.615490 132 39511ft 522kts
01-Nov-20 14:22 33.961387 -98.477225 132 38752ft 519kts
01-Nov-20 14:23 33.873430 -98.340341 132 35892ft 518kts
01-Nov-20 14:24 33.785140 -98.203357 132 32360ft 524kts
01-Nov-20 14:25 33.697377 -98.067765 131 29563ft 506kts
01-Nov-20 14:26 33.612843 -97.937682 130 26978ft 484kts
01-Nov-20 14:27 33.536916 -97.809481 113 24471ft 464kts
01-Nov-20 14:28 33.498638 -97.665755 104 22064ft 442kts
01-Nov-20 14:29 33.466201 -97.530867 106 20646ft 389kts
01-Nov-20 14:30 33.411771 -97.424188 123 19236ft 369kts
01-Nov-20 14:31 33.355619 -97.323662 123 17632ft 357kts
01-Nov-20 14:32 33.301604 -97.227563 123 16048ft 345kts
01-Nov-20 14:33 33.250110 -97.134667 116 14462ft 335kts
01-Nov-20 14:34 33.216651 -97.035720 103 12912ft 323kts
01-Nov-20 14:35 33.186601 -96.940303 132 11400ft 320kts
01-Nov-20 14:36 33.121345 -96.871313 138 10133ft 304kts
01-Nov-20 14:37 33.058775 -96.807581 137 8936ft 291kts
01-Nov-20 14:38 32.998059 -96.745842 134 7697ft 280kts
01-Nov-20 14:39 32.944549 -96.682134 132 6517ft 268kts
01-Nov-20 14:40 32.893784 -96.621198 132 5653ft 268kts
01-Nov-20 14:41 32.843361 -96.560600 132 4984ft 267kts
01-Nov-20 14:42 32.784471 -96.557498 229 4527ft 267kts
01-Nov-20 14:43 32.739560 -96.624818 248 3507ft 259kts
01-Nov-20 14:44 32.717522 -96.703323 261 2696ft 252kts
01-Nov-20 14:45 32.745898 -96.743342 341 2498ft 210kts
01-Nov-20 14:46 32.775382 -96.775631 317 2488ft 154kts
01-Nov-20 14:47 32.798744 -96.802917 315 1923ft 154kts
01-Nov-20 14:48 32.818153 -96.825527 316 1002ft 135kts
01-Nov-20 14:49 32.831813 -96.840827 319 609ft 125kts
01-Nov-20 14:50 32.841611 -96.852076 318 492ft 44kts
01-Nov-20 14:51 32.845271 -96.853431 3 492ft 20kts
01-Nov-20 14:52 32.846359 -96.852312 135 492ft 0kts
01-Nov-20 14:53 32.846513 -96.851825 179 492ft 0kts
01-Nov-20 14:54 32.846474 -96.851825 179 492ft 0kts

Navigation Log

Ident Type
Flight plan parsing failed, navigation log unavailable